Time;durP1;ratioP1;P1;durP2;ratioP2;P2;SDS_P1;SDS_P2;PMS_P1;PMS_P2;Temp;Humidity;BMP_temperature;BMP_pressure;BME280_temperature;BME280_humidity;BME280_pressure;Samples;Min_cycle;Max_cycle;Signal;HPM_P1;HPM_P2
2021/04/24 00:00:27;;;;;;;14.70;6.72;;;;;;;4.67;56.84;97715.04;1771436;79;21257;-84
2021/04/24 00:02:57;;;;;;;14.80;7.55;;;;;;;4.63;56.74;97711.34;1770512;79;21549;-80
2021/04/24 00:05:32;;;;;;;12.58;6.47;;;;;;;4.61;56.74;97714.00;1738068;81;21116;-79
2021/04/24 00:08:04;;;;;;;16.12;7.30;;;;;;;4.55;56.64;97707.77;1749328;81;21278;-79
2021/04/24 00:10:35;;;;;;;10.40;6.42;;;;;;;4.49;56.63;97704.14;1753795;81;21088;-78
2021/04/24 00:13:05;;;;;;;9.33;6.35;;;;;;;4.46;56.91;97709.49;1748795;82;21144;-78
2021/04/24 00:15:33;;;;;;;11.05;6.70;;;;;;;4.42;56.58;97702.27;1751476;81;21092;-78
2021/04/24 00:18:04;;;;;;;12.90;6.97;;;;;;;4.37;56.45;97699.00;1763748;81;21132;-79
2021/04/24 00:20:32;;;;;;;12.55;8.15;;;;;;;4.34;56.48;97703.08;1763802;81;21144;-79
2021/04/24 00:23:00;;;;;;;14.30;5.72;;;;;;;4.31;56.60;97707.98;1801816;79;21730;-79
2021/04/24 00:25:28;;;;;;;12.82;6.85;;;;;;;4.28;56.62;97700.72;1769937;81;21201;-79
2021/04/24 00:27:55;;;;;;;11.28;5.80;;;;;;;4.26;56.59;97703.41;1770706;79;21149;-79
2021/04/24 00:30:24;;;;;;;13.53;6.42;;;;;;;4.28;56.58;97700.72;1741206;81;21121;-78
2021/04/24 00:32:53;;;;;;;10.43;5.72;;;;;;;4.27;56.82;97693.83;1748852;81;21168;-79
2021/04/24 00:35:22;;;;;;;11.12;5.65;;;;;;;4.30;56.93;97691.06;1762822;81;21120;-79
2021/04/24 00:37:50;;;;;;;9.18;5.62;;;;;;;4.31;56.67;97688.84;1727635;83;21159;-79
2021/04/24 00:40:19;;;;;;;9.18;5.78;;;;;;;4.35;56.55;97690.41;1767194;79;21496;-78
2021/04/24 00:42:48;;;;;;;12.43;5.92;;;;;;;4.40;56.74;97694.13;1756796;81;21147;-79
2021/04/24 00:45:22;;;;;;;12.23;5.22;;;;;;;4.44;56.63;97695.66;1759742;81;21124;-79
2021/04/24 00:47:51;;;;;;;13.78;5.87;;;;;;;4.48;56.55;97694.61;1815616;79;21251;-78
2021/04/24 00:50:24;;;;;;;8.53;5.28;;;;;;;4.53;56.45;97690.87;1814232;79;21132;-79
2021/04/24 00:52:51;;;;;;;9.58;5.72;;;;;;;4.57;56.40;97689.41;1813719;79;21310;-79
2021/04/24 00:55:19;;;;;;;12.10;5.53;;;;;;;4.59;56.47;97696.27;1815303;79;21124;-79
2021/04/24 00:57:47;;;;;;;12.07;5.22;;;;;;;4.61;56.26;97689.66;1815207;79;21125;-80
2021/04/24 01:00:17;;;;;;;10.32;5.33;;;;;;;4.64;56.23;97686.92;1815347;79;21612;-79
2021/04/24 01:02:44;;;;;;;13.38;5.62;;;;;;;4.65;56.44;97690.75;1788328;79;21629;-79
2021/04/24 01:05:36;;;;;;;12.43;5.17;;;;;;;4.65;56.68;97691.20;1733431;83;21171;-79
2021/04/24 01:08:08;;;;;;;12.20;5.67;;;;;;;4.67;56.22;97684.14;1710172;84;21167;-79
2021/04/24 01:10:43;;;;;;;14.35;6.08;;;;;;;4.65;56.19;97687.28;1711106;84;21166;-78
2021/04/24 01:13:13;;;;;;;7.85;5.30;;;;;;;4.62;56.43;97684.83;1690679;84;21163;-80
2021/04/24 01:15:44;;;;;;;8.35;5.25;;;;;;;4.58;56.25;97684.13;1649712;87;21175;-79
2021/04/24 01:18:12;;;;;;;9.70;5.25;;;;;;;4.56;56.18;97679.88;1646556;87;21365;-78
2021/04/24 01:20:40;;;;;;;12.30;5.42;;;;;;;4.51;56.00;97677.48;1653829;85;22162;-80
2021/04/24 01:23:10;;;;;;;9.20;5.15;;;;;;;4.47;56.09;97679.86;1651709;85;21285;-79
2021/04/24 01:25:40;;;;;;;8.43;5.40;;;;;;;4.40;56.22;97680.59;1650605;87;21175;-78
2021/04/24 01:28:08;;;;;;;11.30;5.47;;;;;;;4.32;56.27;97690.07;1650521;87;21301;-78
2021/04/24 01:30:41;;;;;;;9.88;4.75;;;;;;;4.22;56.53;97693.57;1651027;85;21139;-79
2021/04/24 01:33:11;;;;;;;15.05;5.90;;;;;;;4.15;56.41;97689.98;1650436;87;21194;-80
2021/04/24 01:35:42;;;;;;;10.53;5.17;;;;;;;4.06;56.74;97686.88;1651200;85;21196;-76
2021/04/24 01:38:09;;;;;;;12.13;5.65;;;;;;;3.98;56.94;97691.59;1650289;87;21293;-79
2021/04/24 01:40:37;;;;;;;12.63;5.95;;;;;;;3.89;57.04;97696.77;1650412;87;21167;-79
2021/04/24 01:43:06;;;;;;;7.87;5.37;;;;;;;3.81;57.37;97689.71;1650182;87;21381;-78
2021/04/24 01:45:35;;;;;;;10.93;5.10;;;;;;;3.73;57.30;97693.98;1680155;85;21159;-79
2021/04/24 01:48:06;;;;;;;12.40;5.67;;;;;;;3.65;57.15;97689.55;1683371;85;21608;-79
2021/04/24 01:50:39;;;;;;;8.53;5.22;;;;;;;3.61;57.55;97694.96;1683075;85;21171;-79
2021/04/24 01:53:11;;;;;;;12.95;6.03;;;;;;;3.55;57.72;97695.59;1683383;85;21348;-80
2021/04/24 01:55:42;;;;;;;11.10;5.40;;;;;;;3.53;58.58;97696.11;1653385;85;21584;-78
2021/04/24 01:58:13;;;;;;;10.08;5.47;;;;;;;3.54;58.34;97696.97;1650343;87;21190;-78
2021/04/24 02:00:45;;;;;;;12.73;4.58;;;;;;;3.56;58.42;97695.16;1645533;85;21179;-78
2021/04/24 02:03:14;;;;;;;11.88;4.92;;;;;;;3.57;58.75;97696.86;1669517;85;21159;-79
2021/04/24 02:05:46;;;;;;;10.28;4.90;;;;;;;3.58;58.76;97699.38;1626440;87;21191;-78
2021/04/24 02:08:21;;;;;;;15.23;4.95;;;;;;;3.62;58.94;97700.09;1644067;87;21164;-79
2021/04/24 02:10:53;;;;;;;16.80;5.92;;;;;;;3.62;59.19;97693.58;1620164;89;21199;-81
2021/04/24 02:13:26;;;;;;;15.05;6.58;;;;;;;3.61;59.44;97693.19;1618070;87;21164;-79
2021/04/24 02:15:54;;;;;;;12.50;6.03;;;;;;;3.62;59.26;97692.75;1617166;89;21160;-79
2021/04/24 02:18:22;;;;;;;11.10;5.83;;;;;;;3.61;59.38;97693.19;1619498;89;21791;-78
2021/04/24 02:20:50;;;;;;;8.90;5.72;;;;;;;3.60;59.21;97688.88;1619386;89;21207;-79
2021/04/24 02:23:19;;;;;;;7.70;5.42;;;;;;;3.58;59.14;97683.74;1619567;89;21771;-79
2021/04/24 02:25:47;;;;;;;10.90;5.20;;;;;;;3.57;59.00;97679.91;1619702;89;21171;-78
2021/04/24 02:28:16;;;;;;;9.05;5.70;;;;;;;3.51;58.92;97682.32;1619896;89;21238;-79
2021/04/24 02:30:45;;;;;;;8.53;5.08;;;;;;;3.43;58.85;97682.63;1619848;89;21333;-78
2021/04/24 02:33:15;;;;;;;10.13;5.37;;;;;;;3.38;58.95;97683.30;1620458;89;21175;-79
2021/04/24 02:35:53;;;;;;;9.28;4.97;;;;;;;3.30;59.05;97680.12;1620619;89;21725;-78
2021/04/24 02:38:30;;;;;;;10.93;4.85;;;;;;;3.23;58.90;97682.61;1615801;89;21164;-78
2021/04/24 02:41:03;;;;;;;13.35;4.90;;;;;;;3.17;59.05;97682.40;1599047;90;21327;-78
2021/04/24 02:43:31;;;;;;;11.25;4.90;;;;;;;3.13;59.18;97687.36;1598352;89;21161;-78
2021/04/24 02:45:59;;;;;;;13.58;4.55;;;;;;;3.07;59.28;97681.94;1598370;90;21185;-79
2021/04/24 02:48:27;;;;;;;7.00;4.42;;;;;;;3.05;59.44;97677.24;1605301;89;21621;-79
2021/04/24 02:50:54;;;;;;;7.92;3.80;;;;;;;3.01;59.41;97683.94;1606184;89;21192;-77
2021/04/24 02:53:22;;;;;;;7.15;4.37;;;;;;;2.96;59.41;97682.38;1606102;89;21183;-79
2021/04/24 02:55:49;;;;;;;9.95;4.08;;;;;;;2.88;59.72;97678.38;1605894;89;21639;-79
2021/04/24 02:58:17;;;;;;;10.72;4.58;;;;;;;2.82;59.86;97680.77;1599703;89;21152;-79
2021/04/24 03:00:45;;;;;;;11.25;5.22;;;;;;;2.75;60.11;97679.33;1601646;89;21168;-77
2021/04/24 03:03:14;;;;;;;9.58;4.12;;;;;;;2.64;60.68;97679.28;1618609;88;21208;-79
2021/04/24 03:05:44;;;;;;;7.25;4.37;;;;;;;2.57;62.23;97676.97;1614597;89;21188;-79
2021/04/24 03:08:13;;;;;;;8.20;4.17;;;;;;;2.52;60.53;97686.25;1636748;87;21220;-80
2021/04/24 03:10:42;;;;;;;6.35;4.05;;;;;;;2.46;60.54;97686.03;1639757;87;21136;-79
2021/04/24 03:13:11;;;;;;;9.20;4.17;;;;;;;2.42;61.02;97681.00;1651150;87;21176;-78
2021/04/24 03:15:39;;;;;;;8.08;3.87;;;;;;;2.38;60.93;97685.95;1648802;87;21203;-78
2021/04/24 03:18:07;;;;;;;9.30;4.47;;;;;;;2.34;60.82;97689.95;1648492;87;21215;-78
2021/04/24 03:20:34;;;;;;;12.45;4.25;;;;;;;2.32;62.78;97690.45;1633120;87;21684;-79
2021/04/24 03:23:04;;;;;;;7.22;4.00;;;;;;;2.29;61.55;97688.42;1617257;87;21174;-77
2021/04/24 03:25:31;;;;;;;9.38;4.30;;;;;;;2.28;61.26;97701.03;1623359;88;21192;-79
2021/04/24 03:27:59;;;;;;;8.53;4.47;;;;;;;2.27;61.65;97698.06;1623473;88;21177;-78
2021/04/24 03:30:29;;;;;;;8.83;4.22;;;;;;;2.28;61.40;97701.03;1638859;87;21175;-79
2021/04/24 03:32:56;;;;;;;10.70;4.58;;;;;;;2.27;61.47;97707.17;1651282;87;21176;-79
2021/04/24 03:35:24;;;;;;;17.55;5.95;;;;;;;2.26;61.34;97707.61;1651171;87;21683;-79
2021/04/24 03:37:52;;;;;;;12.63;5.12;;;;;;;2.28;61.64;97707.54;1651108;87;21163;-79
2021/04/24 03:40:19;;;;;;;7.42;4.22;;;;;;;2.29;61.37;97704.03;1652061;87;21613;-78
2021/04/24 03:42:47;;;;;;;9.43;3.80;;;;;;;2.29;61.42;97711.41;1654055;87;21581;-79
2021/04/24 03:45:19;;;;;;;8.53;4.20;;;;;;;2.30;61.25;97713.54;1653815;87;21176;-79
2021/04/24 03:47:50;;;;;;;9.43;4.47;;;;;;;2.31;61.21;97717.41;1654072;87;21196;-78
2021/04/24 03:50:20;;;;;;;14.60;4.65;;;;;;;2.36;61.31;97722.87;1653534;86;21155;-78
2021/04/24 03:52:48;;;;;;;13.22;4.67;;;;;;;2.37;61.35;97719.38;1654195;87;21210;-79
2021/04/24 03:55:17;;;;;;;12.55;5.05;;;;;;;2.39;61.35;97726.67;1653838;87;21183;-78
2021/04/24 03:57:50;;;;;;;14.18;6.33;;;;;;;2.46;61.50;97729.44;1653789;87;21175;-79
2021/04/24 04:00:20;;;;;;;9.38;5.05;;;;;;;2.51;61.56;97727.50;1653987;87;21203;-79
2021/04/24 04:02:56;;;;;;;11.40;4.42;;;;;;;2.57;61.33;97731.63;1653040;87;21155;-78
2021/04/24 04:05:27;;;;;;;15.85;9.78;;;;;;;2.64;61.20;97737.02;1648893;87;22022;-78
2021/04/24 04:07:55;;;;;;;10.93;6.30;;;;;;;2.72;61.12;97741.48;1638951;87;21201;-78
2021/04/24 04:10:24;;;;;;;11.30;5.45;;;;;;;2.81;60.99;97739.82;1649953;87;21180;-78
2021/04/24 04:12:55;;;;;;;7.47;4.80;;;;;;;2.89;61.00;97743.41;1593901;90;21196;-78
2021/04/24 04:15:25;;;;;;;11.18;4.47;;;;;;;2.98;60.85;97747.42;1620586;89;21209;-79
2021/04/24 04:18:01;;;;;;;9.00;4.80;;;;;;;3.09;61.07;97745.69;1590442;90;21212;-79
2021/04/24 04:20:30;;;;;;;7.60;4.28;;;;;;;3.21;60.70;97746.95;1606900;89;21169;-79
2021/04/24 04:22:57;;;;;;;10.23;5.25;;;;;;;3.31;60.47;97749.58;1600486;88;21171;-79
2021/04/24 04:25:26;;;;;;;7.55;4.53;;;;;;;3.41;60.48;97752.68;1652238;87;21192;-78
2021/04/24 04:27:54;;;;;;;8.00;4.70;;;;;;;3.50;60.36;97756.65;1649872;87;21150;-79
2021/04/24 04:30:22;;;;;;;8.65;4.47;;;;;;;3.69;60.61;97756.28;1637833;87;21598;-79
2021/04/24 04:32:51;;;;;;;5.97;3.75;;;;;;;4.08;60.38;97765.11;1621082;88;21216;-78
2021/04/24 04:35:20;;;;;;;6.25;4.62;;;;;;;4.58;60.01;97767.69;1652981;87;21206;-78
2021/04/24 04:37:48;;;;;;;6.33;3.98;;;;;;;5.16;59.65;97763.27;1652519;87;21190;-79
2021/04/24 04:40:16;;;;;;;12.15;5.83;;;;;;;5.78;59.14;97764.20;1652618;87;21191;-78
2021/04/24 04:42:45;;;;;;;15.35;4.37;;;;;;;6.51;58.34;97755.25;1652718;87;21613;-78
2021/04/24 04:45:16;;;;;;;8.60;4.40;;;;;;;7.21;56.49;97764.59;1652499;87;21215;-79
2021/04/24 04:47:44;;;;;;;8.98;4.17;;;;;;;7.79;56.41;97763.89;1635032;87;21636;-80
2021/04/24 04:50:17;;;;;;;9.13;4.53;;;;;;;8.45;55.01;97770.08;1620884;89;21184;-78
2021/04/24 04:52:45;;;;;;;11.57;4.33;;;;;;;9.08;53.96;97758.80;1590367;89;21636;-78
2021/04/24 04:55:13;;;;;;;7.80;4.05;;;;;;;9.74;52.47;97754.13;1574538;91;21180;-79
2021/04/24 04:57:41;;;;;;;8.50;3.85;;;;;;;10.32;51.04;97766.46;1592759;89;21186;-79
2021/04/24 05:00:19;;;;;;;7.05;3.95;;;;;;;10.83;48.71;97766.09;1620382;88;21229;-79
2021/04/24 05:02:48;;;;;;;13.18;4.60;;;;;;;11.38;48.86;97768.73;1620681;88;21164;-79
2021/04/24 05:05:17;;;;;;;21.95;5.40;;;;;;;12.07;47.55;97771.65;1608941;88;21155;-80
2021/04/24 05:07:48;;;;;;;12.80;4.65;;;;;;;12.39;47.37;97774.47;1642141;87;21195;-81
2021/04/24 05:10:21;;;;;;;7.30;3.90;;;;;;;12.80;44.89;97767.78;1665400;86;21167;-81
2021/04/24 05:12:51;;;;;;;12.25;5.78;;;;;;;13.37;43.71;97766.84;1673850;86;21723;-81
2021/04/24 05:15:20;;;;;;;9.13;3.77;;;;;;;13.71;42.84;97766.78;1674064;86;21272;-80
2021/04/24 05:17:48;;;;;;;6.95;3.95;;;;;;;14.05;41.88;97767.47;1673831;86;21195;-79
2021/04/24 05:20:17;;;;;;;9.80;4.00;;;;;;;14.44;41.98;97768.18;1640903;87;21192;-78
2021/04/24 05:22:45;;;;;;;11.75;4.20;;;;;;;14.73;41.15;97767.98;1641390;87;21592;-80
2021/04/24 05:25:16;;;;;;;9.68;4.20;;;;;;;15.05;40.19;97765.17;1646272;87;21632;-79
2021/04/24 05:27:46;;;;;;;10.38;4.10;;;;;;;15.44;39.02;97765.27;1648819;87;21640;-80
2021/04/24 05:30:16;;;;;;;8.93;4.10;;;;;;;15.80;38.70;97770.05;1648913;87;21298;-76
2021/04/24 05:32:44;;;;;;;8.78;4.28;;;;;;;16.07;38.48;97766.70;1619761;89;21646;-78
2021/04/24 05:35:15;;;;;;;8.65;4.60;;;;;;;16.44;36.60;97765.10;1646786;87;21171;-82
2021/04/24 05:37:42;;;;;;;10.03;4.00;;;;;;;16.99;36.41;97764.35;1622552;87;21168;-83
2021/04/24 05:40:11;;;;;;;12.20;4.05;;;;;;;17.51;35.21;97763.42;1641339;87;21713;-79
2021/04/24 05:42:38;;;;;;;14.33;4.35;;;;;;;17.79;33.15;97770.37;1641542;87;21353;-83
2021/04/24 05:45:11;;;;;;;12.93;4.15;;;;;;;17.94;34.49;97774.67;1641032;87;21593;-79
2021/04/24 05:47:42;;;;;;;7.47;3.47;;;;;;;18.21;33.27;97772.91;1667954;86;21161;-81
2021/04/24 05:50:11;;;;;;;10.35;3.50;;;;;;;18.60;31.96;97774.36;1645853;87;21296;-82
2021/04/24 05:52:39;;;;;;;6.35;3.58;;;;;;;18.91;31.46;97771.16;1673792;86;21187;-80
2021/04/24 05:55:09;;;;;;;7.15;3.60;;;;;;;19.01;31.18;97767.91;1641350;87;21192;-81
2021/04/24 05:57:37;;;;;;;9.45;3.62;;;;;;;19.11;31.34;97769.61;1667090;85;21183;-78
2021/04/24 06:00:08;;;;;;;7.40;3.42;;;;;;;19.13;31.02;97774.30;1645737;87;21200;-78
2021/04/24 06:02:36;;;;;;;7.35;3.60;;;;;;;19.19;31.20;97770.97;1671232;85;21580;-79
2021/04/24 06:05:08;;;;;;;8.03;3.70;;;;;;;19.37;30.70;97773.55;1674113;86;21178;-78
2021/04/24 06:07:37;;;;;;;8.23;4.17;;;;;;;19.63;30.31;97769.41;1671654;85;21171;-79
2021/04/24 06:10:08;;;;;;;10.53;4.45;;;;;;;19.85;29.91;97775.16;1660629;86;21578;-80
2021/04/24 06:12:36;;;;;;;8.33;4.47;;;;;;;19.98;29.95;97765.30;1630236;86;21183;-82
2021/04/24 06:15:09;;;;;;;8.38;4.17;;;;;;;20.09;29.74;97764.16;1653880;86;21182;-79
2021/04/24 06:17:37;;;;;;;10.13;4.30;;;;;;;20.27;29.30;97766.63;1647477;86;21156;-83
2021/04/24 06:20:07;;;;;;;11.38;4.28;;;;;;;20.39;28.74;97758.59;1621712;88;21205;-78
2021/04/24 06:22:34;;;;;;;8.23;4.55;;;;;;;20.59;28.42;97761.73;1664171;86;21216;-80
2021/04/24 06:25:03;;;;;;;8.08;4.55;;;;;;;20.90;28.48;97756.14;1664282;86;21573;-81
2021/04/24 06:27:30;;;;;;;11.20;4.42;;;;;;;;;;1650969;86;21196;-79
2021/04/24 06:29:58;;;;;;;10.58;4.40;;;;;;;21.27;26.71;97763.20;1650335;86;21144;-82
2021/04/24 06:32:25;;;;;;;16.62;4.65;;;;;;;21.26;28.16;97762.87;1647415;86;21302;-80
2021/04/24 06:34:53;;;;;;;7.30;4.80;;;;;;;21.21;27.64;97758.85;1618377;89;21199;-78
2021/04/24 06:37:20;;;;;;;7.03;4.35;;;;;;;21.42;27.70;97759.27;1611484;89;21183;-80
2021/04/24 06:39:47;;;;;;;7.20;4.80;;;;;;;21.53;27.76;97755.67;1596312;89;21164;-80
2021/04/24 06:42:16;;;;;;;13.90;5.03;;;;;;;21.59;27.77;97758.67;1629101;88;21223;-78
2021/04/24 06:44:46;;;;;;;9.00;4.95;;;;;;;21.60;27.58;97754.98;1625351;87;21184;-80
2021/04/24 06:47:13;;;;;;;10.32;4.35;;;;;;;21.82;26.94;97750.15;1629506;88;21160;-80
2021/04/24 06:49:41;;;;;;;7.85;3.95;;;;;;;21.93;26.54;97753.43;1629563;88;21209;-79
2021/04/24 06:52:08;;;;;;;7.60;4.22;;;;;;;21.94;26.90;97749.21;1629709;88;21645;-80
2021/04/24 06:54:36;;;;;;;8.13;3.70;;;;;;;21.81;26.48;97751.65;1640944;86;21171;-77
2021/04/24 06:57:06;;;;;;;9.58;4.20;;;;;;;21.77;26.38;97751.17;1647679;86;21200;-79
2021/04/24 06:59:33;;;;;;;6.05;4.20;;;;;;;21.67;25.90;97751.91;1618291;89;21643;-78
2021/04/24 07:02:01;;;;;;;9.45;4.37;;;;;;;21.76;25.62;97750.84;1610569;89;21183;-78
2021/04/24 07:04:29;;;;;;;5.80;4.08;;;;;;;21.90;24.48;97750.57;1650037;86;21152;-79
2021/04/24 07:06:56;;;;;;;8.40;3.85;;;;;;;21.85;25.32;97754.31;1647552;86;21581;-74
2021/04/24 07:09:23;;;;;;;9.00;4.17;;;;;;;21.98;25.26;97751.87;1637282;87;21503;-78
2021/04/24 07:11:51;;;;;;;7.10;3.87;;;;;;;22.08;24.83;97752.95;1673448;86;21338;-78
2021/04/24 07:14:18;;;;;;;9.95;4.28;;;;;;;21.88;24.74;97753.11;1640818;86;21210;-79
2021/04/24 07:16:45;;;;;;;7.20;3.65;;;;;;;21.92;25.04;97750.41;1673358;85;21325;-78
2021/04/24 07:19:14;;;;;;;7.22;3.70;;;;;;;22.10;24.44;97756.30;1641134;87;21195;-78
2021/04/24 07:21:41;;;;;;;8.13;3.60;;;;;;;22.23;24.18;97753.48;1645846;87;21176;-79
2021/04/24 07:24:09;;;;;;;8.65;3.77;;;;;;;22.22;24.09;97754.53;1673328;86;21218;-79
2021/04/24 07:26:39;;;;;;;4.00;2.30;;;;;;;21.78;23.96;97757.39;1674111;86;21159;-76
2021/04/24 07:29:07;;;;;;;4.03;2.30;;;;;;;21.26;22.57;97761.52;1649520;86;21140;-78
2021/04/24 07:31:35;;;;;;;6.65;3.08;;;;;;;19.97;23.06;97761.80;1641319;86;21629;-78
2021/04/24 07:34:03;;;;;;;7.33;3.08;;;;;;;19.32;23.79;97749.98;1641249;87;21144;-81
2021/04/24 07:36:31;;;;;;;5.17;2.77;;;;;;;18.21;23.83;97763.57;1673537;86;21132;-78
2021/04/24 07:38:58;;;;;;;5.33;2.62;;;;;;;16.90;24.16;97756.39;1649372;86;21593;-79
2021/04/24 07:41:27;;;;;;;5.00;2.87;;;;;;;16.17;25.20;97758.72;1671768;86;21588;-80
2021/04/24 07:43:54;;;;;;;6.10;3.22;;;;;;;15.75;25.83;97762.50;1673983;86;21175;-78
2021/04/24 07:46:22;;;;;;;6.40;3.95;;;;;;;15.51;26.77;97758.91;1673775;86;21194;-79
2021/04/24 07:48:49;;;;;;;6.92;4.10;;;;;;;15.80;27.33;97761.22;1674305;86;21135;-78
2021/04/24 07:51:17;;;;;;;6.85;3.75;;;;;;;16.34;27.53;97761.63;1673605;86;21171;-79
2021/04/24 07:53:44;;;;;;;6.67;3.35;;;;;;;16.65;27.12;97753.42;1673823;86;21656;-78
2021/04/24 07:56:12;;;;;;;8.25;3.70;;;;;;;17.01;26.88;97756.23;1673951;86;21174;-78
2021/04/24 07:58:39;;;;;;;6.03;3.30;;;;;;;17.33;27.01;97753.58;1673828;86;21183;-79
2021/04/24 08:01:07;;;;;;;8.90;3.52;;;;;;;17.31;26.51;97756.88;1673580;86;21150;-78
2021/04/24 08:03:35;;;;;;;11.75;3.17;;;;;;;17.35;25.89;97753.45;1640815;87;21180;-79
2021/04/24 08:06:03;;;;;;;7.97;4.17;;;;;;;16.66;26.07;97757.73;1673444;86;21632;-77
2021/04/24 08:08:31;;;;;;;6.85;4.00;;;;;;;16.43;27.21;97749.27;1640382;87;21561;-79
2021/04/24 08:11:01;;;;;;;7.33;3.67;;;;;;;16.65;27.11;97751.58;1638444;87;21152;-78
2021/04/24 08:13:28;;;;;;;5.72;4.00;;;;;;;16.02;26.70;97757.46;1637903;87;21630;-77
2021/04/24 08:15:55;;;;;;;7.40;3.87;;;;;;;15.93;27.74;97749.36;1674828;86;21252;-78
2021/04/24 08:18:23;;;;;;;6.35;4.17;;;;;;;16.16;27.12;97747.73;1675292;86;21127;-78
2021/04/24 08:20:53;;;;;;;7.10;4.20;;;;;;;16.39;27.45;97740.73;1674696;86;21605;-79
2021/04/24 08:23:23;;;;;;;4.62;2.83;;;;;;;16.71;27.30;97738.19;1674898;86;21154;-77
2021/04/24 08:25:51;;;;;;;8.00;3.98;;;;;;;16.84;26.43;97744.50;1664318;86;21159;-78
2021/04/24 08:28:18;;;;;;;7.35;4.00;;;;;;;16.59;26.98;97742.86;1674374;86;21156;-78
2021/04/24 08:30:45;;;;;;;6.05;3.45;;;;;;;16.48;26.63;97737.71;1660865;86;21179;-79
2021/04/24 08:33:12;;;;;;;7.67;3.50;;;;;;;15.96;26.80;97740.76;1673668;86;21171;-78
2021/04/24 08:35:40;;;;;;;11.30;3.80;;;;;;;16.00;27.71;97742.16;1669708;86;21159;-78
2021/04/24 08:38:07;;;;;;;7.37;4.00;;;;;;;16.06;27.94;97748.23;1674812;86;21307;-77
2021/04/24 08:40:35;;;;;;;5.75;3.22;;;;;;;16.30;27.94;97739.80;1666928;85;21262;-78
2021/04/24 08:43:11;;;;;;;7.83;3.75;;;;;;;16.54;27.86;97743.77;1647719;86;21188;-76
2021/04/24 08:45:44;;;;;;;6.37;3.70;;;;;;;16.28;27.51;97743.59;1674787;86;21170;-77
2021/04/24 08:48:12;;;;;;;7.28;3.60;;;;;;;16.35;27.82;97742.02;1674721;86;21188;-76
2021/04/24 08:50:39;;;;;;;5.37;2.55;;;;;;;16.46;27.99;97741.86;1674939;85;21195;-78
2021/04/24 08:53:08;;;;;;;8.80;3.02;;;;;;;16.29;26.87;97741.25;1674698;86;21560;-78
2021/04/24 08:55:38;;;;;;;7.25;3.05;;;;;;;15.72;26.83;97738.02;1639644;87;21179;-76
2021/04/24 08:58:07;;;;;;;7.80;2.90;;;;;;;15.08;27.36;97735.70;1644666;86;21590;-78
2021/04/24 09:00:39;;;;;;;5.85;2.92;;;;;;;14.80;27.20;97739.47;1639791;87;21200;-78
2021/04/24 09:03:13;;;;;;;5.92;3.00;;;;;;;14.93;28.07;97735.75;1674528;86;21214;-77
2021/04/24 09:05:40;;;;;;;6.42;2.80;;;;;;;15.26;28.06;97725.28;1674979;86;21186;-76
2021/04/24 09:08:10;;;;;;;7.40;2.83;;;;;;;15.69;27.31;97725.00;1649054;85;21585;-76
2021/04/24 09:10:44;;;;;;;5.42;2.20;;;;;;;16.07;27.00;97728.14;1615516;89;21222;-77
2021/04/24 09:13:17;;;;;;;8.83;2.72;;;;;;;16.08;26.25;97724.50;1640504;86;21173;-77
2021/04/24 09:15:44;;;;;;;6.70;2.52;;;;;;;15.90;25.54;97716.91;1640675;86;21198;-76
2021/04/24 09:18:12;;;;;;;6.60;2.58;;;;;;;15.83;25.42;97721.91;1670677;86;21151;-77
2021/04/24 09:21:00;;;;;;;4.42;2.20;;;;;;;15.75;26.19;97707.16;1672916;86;21206;-77
2021/04/24 09:23:36;;;;;;;5.70;2.70;;;;;;;16.20;25.78;97714.53;1666853;86;21195;-78
2021/04/24 09:26:09;;;;;;;5.60;2.67;;;;;;;16.69;26.68;97709.54;1673393;85;21282;-78
2021/04/24 09:28:44;;;;;;;4.15;2.15;;;;;;;17.01;25.98;97709.63;1640702;87;21164;-78
2021/04/24 09:31:18;;;;;;;4.92;1.92;;;;;;;17.22;25.49;97704.50;1657445;85;21703;-77
2021/04/24 09:33:49;;;;;;;5.80;2.65;;;;;;;17.23;24.55;97702.19;1646244;87;21183;-77
2021/04/24 09:36:17;;;;;;;6.12;2.98;;;;;;;17.08;23.79;97705.86;1646955;87;21194;-77
2021/04/24 09:38:49;;;;;;;5.00;2.92;;;;;;;16.82;24.75;97696.73;1672922;86;21195;-76
2021/04/24 09:41:25;;;;;;;7.67;3.22;;;;;;;16.81;25.63;97698.20;1640452;87;21212;-77
2021/04/24 09:44:16;;;;;;;6.95;2.85;;;;;;;16.62;25.73;97695.16;1672896;86;21608;-79
2021/04/24 09:46:50;;;;;;;6.05;3.42;;;;;;;15.91;25.04;97698.14;1673204;85;21192;-76
2021/04/24 09:49:26;;;;;;;6.55;3.60;;;;;;;15.38;26.60;97691.45;1674161;86;21156;-78
2021/04/24 09:52:06;;;;;;;4.78;3.45;;;;;;;15.35;26.73;97690.89;1641278;87;21149;-78
2021/04/24 09:54:39;;;;;;;5.55;3.10;;;;;;;15.31;27.21;97691.66;1673403;86;21314;-79
2021/04/24 09:57:11;;;;;;;6.97;2.90;;;;;;;15.38;27.29;97686.14;1662168;86;21152;-78
2021/04/24 09:59:57;;;;;;;6.72;3.12;;;;;;;15.46;26.61;97678.31;1656480;87;21172;-78
2021/04/24 10:02:34;;;;;;;6.90;3.22;;;;;;;15.60;27.45;97688.14;1656455;87;21177;-78
2021/04/24 10:05:20;;;;;;;6.05;2.67;;;;;;;15.93;27.46;97680.23;1626145;88;21188;-77
2021/04/24 10:07:56;;;;;;;4.60;2.67;;;;;;;16.17;26.94;97684.73;1656753;86;21189;-78
2021/04/24 10:10:27;;;;;;;;;;;;;;;16.17;26.91;97683.40;1634061;86;21263;-78
2021/04/24 10:13:08;;;;;;;6.42;2.72;;;;;;;15.95;25.79;97672.14;1628802;87;20211;-78
2021/04/24 10:15:45;;;;;;;5.37;2.70;;;;;;;15.59;26.64;97674.03;1628665;88;21180;-77
2021/04/24 10:18:15;;;;;;;5.08;2.87;;;;;;;15.37;26.64;97672.98;1599875;89;21140;-78
2021/04/24 10:20:46;;;;;;;6.15;2.87;;;;;;;15.23;26.97;97660.48;1628824;87;21623;-79
2021/04/24 10:23:15;;;;;;;4.33;2.40;;;;;;;15.14;26.92;97659.48;1599529;89;21180;-78
2021/04/24 10:25:43;;;;;;;4.65;2.55;;;;;;;15.37;27.42;97659.70;1629010;87;21177;-77
2021/04/24 10:28:10;;;;;;;6.60;3.20;;;;;;;15.47;26.40;97659.21;1599862;89;21167;-78
2021/04/24 10:30:39;;;;;;;6.58;3.33;;;;;;;15.18;26.78;97653.91;1628745;88;21195;-78
2021/04/24 10:33:07;;;;;;;4.25;3.17;;;;;;;15.09;27.50;97652.91;1599808;90;21204;-78
2021/04/24 10:35:34;;;;;;;5.05;3.17;;;;;;;15.15;27.23;97657.68;1617493;88;21605;-77
2021/04/24 10:38:03;;;;;;;5.70;2.60;;;;;;;15.06;27.05;97658.51;1599813;89;21212;-78
2021/04/24 10:40:33;;;;;;;8.20;3.50;;;;;;;14.96;27.86;97646.06;1628699;87;21192;-79
2021/04/24 10:43:00;;;;;;;3.45;2.65;;;;;;;15.05;28.29;97644.88;1599772;90;21585;-78
2021/04/24 10:45:34;;;;;;;6.25;3.05;;;;;;;14.97;26.80;97648.22;1628753;87;21177;-78
2021/04/24 10:48:03;;;;;;;4.72;2.12;;;;;;;14.48;27.48;97638.29;1599801;89;21577;-77
2021/04/24 10:50:46;;;;;;;7.65;3.30;;;;;;;14.33;27.39;97640.97;1628606;87;21213;-77
2021/04/24 10:53:24;;;;;;;8.15;3.40;;;;;;;14.09;28.09;97641.28;1628494;88;21660;-77
2021/04/24 10:55:55;;;;;;;6.37;2.25;;;;;;;14.12;28.58;97637.05;1600285;90;22177;-77
2021/04/24 10:58:27;;;;;;;4.72;2.87;;;;;;;14.27;28.52;97646.31;1628731;87;21208;-77
2021/04/24 11:01:04;;;;;;;4.78;2.62;;;;;;;14.01;28.13;97636.16;1599723;89;21172;-77
2021/04/24 11:03:51;;;;;;;6.15;3.50;;;;;;;13.85;28.70;97630.50;1628793;87;21169;-78
2021/04/24 11:06:22;;;;;;;12.15;3.58;;;;;;;13.66;29.64;97641.80;1603756;89;21145;-78
2021/04/24 11:08:57;;;;;;;7.35;3.35;;;;;;;13.61;29.58;97638.70;1628855;87;21160;-77
2021/04/24 11:11:28;;;;;;;7.47;3.87;;;;;;;13.67;30.09;97636.86;1615719;87;21185;-77
2021/04/24 11:13:56;;;;;;;6.15;3.45;;;;;;;13.74;30.23;97634.89;1639241;87;21192;-78
2021/04/24 11:16:31;;;;;;;4.95;3.00;;;;;;;13.96;29.92;97634.40;1599759;90;21184;-80
2021/04/24 11:18:54;;;;;;;4.28;2.65;;;;;;;14.21;30.08;97626.97;1638819;87;21217;-78
2021/04/24 11:21:28;;;;;;;8.18;3.10;;;;;;;14.18;28.87;97627.23;1600762;89;21180;-76
2021/04/24 11:24:01;;;;;;;6.92;3.35;;;;;;;14.00;28.61;97630.50;1619508;87;21205;-79
2021/04/24 11:26:37;;;;;;;6.58;3.58;;;;;;;13.97;28.87;97627.27;1626667;87;21168;-76
2021/04/24 11:29:23;;;;;;;5.65;3.10;;;;;;;13.97;29.37;97623.30;1638777;87;21156;-77
2021/04/24 11:32:02;;;;;;;8.18;3.60;;;;;;;14.26;29.47;97626.07;1647344;87;21172;-77
2021/04/24 11:34:45;;;;;;;6.08;2.92;;;;;;;14.61;29.67;97626.61;1646645;87;21238;-77
2021/04/24 11:37:23;;;;;;;5.05;3.35;;;;;;;14.88;29.19;97629.98;1647719;86;21177;-78
2021/04/24 11:40:22;;;;;;;5.20;3.30;;;;;;;14.93;28.85;97625.09;1647193;87;21161;-77
2021/04/24 11:43:03;;;;;;;8.90;3.55;;;;;;;14.92;29.19;97618.10;1647168;86;21180;-78
2021/04/24 11:45:59;;;;;;;5.78;2.75;;;;;;;14.66;28.60;97620.42;1647676;87;21157;-77
2021/04/24 11:48:51;;;;;;;5.47;2.77;;;;;;;14.41;28.92;97621.74;1647236;87;21160;-78